sensor_id;sensor_type;location;lat;lon;timestamp;P1;durP1;ratioP1;P2;durP2;ratioP2
70757;SDS011;59316;52.964;7.102;2022-07-06T00:02:52;7.07;;;2.30;;
70757;SDS011;59316;52.964;7.102;2022-07-06T00:08:12;3.58;;;2.00;;
70757;SDS011;59316;52.964;7.102;2022-07-06T00:13:32;4.75;;;2.65;;
70757;SDS011;59316;52.964;7.102;2022-07-06T00:18:51;5.35;;;2.13;;
70757;SDS011;59316;52.964;7.102;2022-07-06T00:24:11;9.57;;;3.72;;
70757;SDS011;59316;52.964;7.102;2022-07-06T00:29:30;4.05;;;2.47;;
70757;SDS011;59316;52.964;7.102;2022-07-06T00:34:50;6.85;;;2.30;;
70757;SDS011;59316;52.964;7.102;2022-07-06T00:40:10;7.57;;;2.50;;
70757;SDS011;59316;52.964;7.102;2022-07-06T00:45:30;10.20;;;2.47;;
70757;SDS011;59316;52.964;7.102;2022-07-06T00:50:50;8.30;;;1.88;;
70757;SDS011;59316;52.964;7.102;2022-07-06T00:56:10;5.22;;;2.25;;
70757;SDS011;59316;52.964;7.102;2022-07-06T01:01:29;8.05;;;2.22;;
70757;SDS011;59316;52.964;7.102;2022-07-06T01:06:49;3.67;;;1.77;;
70757;SDS011;59316;52.964;7.102;2022-07-06T01:12:09;6.03;;;1.88;;
70757;SDS011;59316;52.964;7.102;2022-07-06T01:17:29;4.50;;;2.10;;
70757;SDS011;59316;52.964;7.102;2022-07-06T01:22:51;4.72;;;2.10;;
70757;SDS011;59316;52.964;7.102;2022-07-06T01:28:13;3.25;;;1.63;;
70757;SDS011;59316;52.964;7.102;2022-07-06T01:33:32;3.15;;;1.83;;
70757;SDS011;59316;52.964;7.102;2022-07-06T01:38:53;5.40;;;1.73;;
70757;SDS011;59316;52.964;7.102;2022-07-06T01:44:15;3.65;;;1.80;;
70757;SDS011;59316;52.964;7.102;2022-07-06T01:49:35;5.65;;;1.90;;
70757;SDS011;59316;52.964;7.102;2022-07-06T01:54:55;5.75;;;1.55;;
70757;SDS011;59316;52.964;7.102;2022-07-06T02:00:16;2.80;;;1.30;;
70757;SDS011;59316;52.964;7.102;2022-07-06T02:05:41;3.63;;;1.60;;
70757;SDS011;59316;52.964;7.102;2022-07-06T02:11:01;3.15;;;1.70;;
70757;SDS011;59316;52.964;7.102;2022-07-06T02:16:27;4.22;;;1.55;;
70757;SDS011;59316;52.964;7.102;2022-07-06T02:21:46;6.43;;;1.83;;
70757;SDS011;59316;52.964;7.102;2022-07-06T02:27:06;7.35;;;1.65;;
70757;SDS011;59316;52.964;7.102;2022-07-06T02:32:26;3.70;;;2.08;;
70757;SDS011;59316;52.964;7.102;2022-07-06T02:37:46;4.65;;;2.30;;
70757;SDS011;59316;52.964;7.102;2022-07-06T02:43:06;7.70;;;2.10;;
70757;SDS011;59316;52.964;7.102;2022-07-06T02:48:27;6.72;;;2.63;;
70757;SDS011;59316;52.964;7.102;2022-07-06T02:53:47;5.55;;;2.13;;
70757;SDS011;59316;52.964;7.102;2022-07-06T02:59:06;4.57;;;2.35;;
70757;SDS011;59316;52.964;7.102;2022-07-06T03:04:26;7.97;;;2.70;;
70757;SDS011;59316;52.964;7.102;2022-07-06T03:09:46;7.80;;;2.08;;
70757;SDS011;59316;52.964;7.102;2022-07-06T03:15:06;4.40;;;1.80;;
70757;SDS011;59316;52.964;7.102;2022-07-06T03:20:27;4.07;;;2.13;;
70757;SDS011;59316;52.964;7.102;2022-07-06T03:25:47;4.95;;;1.80;;
70757;SDS011;59316;52.964;7.102;2022-07-06T03:31:08;5.38;;;1.85;;
70757;SDS011;59316;52.964;7.102;2022-07-06T03:36:28;5.07;;;1.88;;
70757;SDS011;59316;52.964;7.102;2022-07-06T03:41:48;6.95;;;2.80;;
70757;SDS011;59316;52.964;7.102;2022-07-06T03:47:08;6.50;;;1.95;;
70757;SDS011;59316;52.964;7.102;2022-07-06T03:52:28;4.50;;;2.22;;
70757;SDS011;59316;52.964;7.102;2022-07-06T03:57:49;3.13;;;1.80;;
70757;SDS011;59316;52.964;7.102;2022-07-06T04:03:13;5.38;;;1.88;;
70757;SDS011;59316;52.964;7.102;2022-07-06T04:08:38;3.85;;;1.98;;
70757;SDS011;59316;52.964;7.102;2022-07-06T04:13:58;3.15;;;1.65;;
70757;SDS011;59316;52.964;7.102;2022-07-06T04:19:18;4.75;;;2.08;;
70757;SDS011;59316;52.964;7.102;2022-07-06T04:24:38;5.45;;;2.58;;
70757;SDS011;59316;52.964;7.102;2022-07-06T04:29:58;6.35;;;2.53;;
70757;SDS011;59316;52.964;7.102;2022-07-06T04:35:19;5.28;;;2.20;;
70757;SDS011;59316;52.964;7.102;2022-07-06T04:40:40;5.25;;;3.08;;
70757;SDS011;59316;52.964;7.102;2022-07-06T04:46:04;5.13;;;2.50;;
70757;SDS011;59316;52.964;7.102;2022-07-06T04:51:26;5.38;;;2.53;;
70757;SDS011;59316;52.964;7.102;2022-07-06T04:56:46;4.70;;;1.60;;
70757;SDS011;59316;52.964;7.102;2022-07-06T05:02:06;4.80;;;1.50;;
70757;SDS011;59316;52.964;7.102;2022-07-06T05:07:26;4.85;;;1.50;;
70757;SDS011;59316;52.964;7.102;2022-07-06T05:12:46;3.17;;;1.10;;
70757;SDS011;59316;52.964;7.102;2022-07-06T05:18:08;5.03;;;1.10;;
70757;SDS011;59316;52.964;7.102;2022-07-06T05:23:28;4.70;;;1.48;;
70757;SDS011;59316;52.964;7.102;2022-07-06T05:28:48;4.00;;;1.10;;
70757;SDS011;59316;52.964;7.102;2022-07-06T05:34:11;4.43;;;1.20;;
70757;SDS011;59316;52.964;7.102;2022-07-06T05:39:32;3.88;;;1.40;;
70757;SDS011;59316;52.964;7.102;2022-07-06T05:44:55;5.45;;;0.80;;
70757;SDS011;59316;52.964;7.102;2022-07-06T05:50:16;8.52;;;1.15;;
70757;SDS011;59316;52.964;7.102;2022-07-06T05:55:44;2.70;;;0.70;;
70757;SDS011;59316;52.964;7.102;2022-07-06T06:01:05;3.28;;;0.60;;
70757;SDS011;59316;52.964;7.102;2022-07-06T06:06:27;4.78;;;0.70;;
70757;SDS011;59316;52.964;7.102;2022-07-06T06:11:46;4.75;;;0.70;;
70757;SDS011;59316;52.964;7.102;2022-07-06T06:17:06;3.65;;;0.60;;
70757;SDS011;59316;52.964;7.102;2022-07-06T06:22:26;2.97;;;0.60;;
70757;SDS011;59316;52.964;7.102;2022-07-06T06:27:47;4.38;;;0.68;;
70757;SDS011;59316;52.964;7.102;2022-07-06T06:33:18;2.05;;;0.80;;
70757;SDS011;59316;52.964;7.102;2022-07-06T06:38:39;3.55;;;0.60;;
70757;SDS011;59316;52.964;7.102;2022-07-06T06:43:58;2.13;;;0.70;;
70757;SDS011;59316;52.964;7.102;2022-07-06T06:49:21;4.50;;;1.10;;
70757;SDS011;59316;52.964;7.102;2022-07-06T06:54:41;1.98;;;0.70;;
70757;SDS011;59316;52.964;7.102;2022-07-06T07:00:01;3.30;;;0.80;;
70757;SDS011;59316;52.964;7.102;2022-07-06T07:05:22;3.15;;;0.57;;
70757;SDS011;59316;52.964;7.102;2022-07-06T07:10:41;4.93;;;0.68;;
70757;SDS011;59316;52.964;7.102;2022-07-06T07:16:01;2.15;;;0.60;;
70757;SDS011;59316;52.964;7.102;2022-07-06T07:21:21;1.95;;;0.47;;
70757;SDS011;59316;52.964;7.102;2022-07-06T07:26:40;3.35;;;0.70;;
70757;SDS011;59316;52.964;7.102;2022-07-06T07:32:00;1.80;;;0.65;;
70757;SDS011;59316;52.964;7.102;2022-07-06T07:37:19;2.38;;;0.50;;
70757;SDS011;59316;52.964;7.102;2022-07-06T07:42:38;1.42;;;0.50;;
70757;SDS011;59316;52.964;7.102;2022-07-06T07:47:58;2.47;;;0.50;;
70757;SDS011;59316;52.964;7.102;2022-07-06T07:53:18;3.10;;;0.60;;
70757;SDS011;59316;52.964;7.102;2022-07-06T07:58:37;4.72;;;0.80;;
70757;SDS011;59316;52.964;7.102;2022-07-06T08:03:58;3.50;;;0.68;;
70757;SDS011;59316;52.964;7.102;2022-07-06T08:09:18;1.08;;;0.60;;
70757;SDS011;59316;52.964;7.102;2022-07-06T08:14:38;2.00;;;0.95;;
70757;SDS011;59316;52.964;7.102;2022-07-06T08:19:58;3.15;;;0.50;;
70757;SDS011;59316;52.964;7.102;2022-07-06T08:25:17;3.28;;;0.75;;
70757;SDS011;59316;52.964;7.102;2022-07-06T08:30:37;1.60;;;0.50;;
70757;SDS011;59316;52.964;7.102;2022-07-06T08:35:57;3.60;;;0.50;;
70757;SDS011;59316;52.964;7.102;2022-07-06T08:41:16;2.47;;;0.60;;
70757;SDS011;59316;52.964;7.102;2022-07-06T08:46:38;3.72;;;0.73;;
70757;SDS011;59316;52.964;7.102;2022-07-06T08:51:59;4.50;;;0.60;;
70757;SDS011;59316;52.964;7.102;2022-07-06T08:57:21;3.00;;;0.60;;
70757;SDS011;59316;52.964;7.102;2022-07-06T09:02:42;1.48;;;0.40;;
70757;SDS011;59316;52.964;7.102;2022-07-06T09:08:02;3.00;;;0.50;;
70757;SDS011;59316;52.964;7.102;2022-07-06T09:13:22;1.75;;;0.50;;
70757;SDS011;59316;52.964;7.102;2022-07-06T09:18:45;4.97;;;0.60;;
70757;SDS011;59316;52.964;7.102;2022-07-06T09:24:06;2.95;;;0.80;;
70757;SDS011;59316;52.964;7.102;2022-07-06T09:29:30;2.92;;;0.57;;
70757;SDS011;59316;52.964;7.102;2022-07-06T09:34:51;3.33;;;1.07;;
70757;SDS011;59316;52.964;7.102;2022-07-06T09:40:17;4.72;;;0.50;;
70757;SDS011;59316;52.964;7.102;2022-07-06T09:45:38;6.57;;;0.70;;
70757;SDS011;59316;52.964;7.102;2022-07-06T09:51:03;3.03;;;0.63;;
70757;SDS011;59316;52.964;7.102;2022-07-06T09:56:22;2.75;;;0.52;;
70757;SDS011;59316;52.964;7.102;2022-07-06T10:02:02;1.27;;;0.65;;
70757;SDS011;59316;52.964;7.102;2022-07-06T10:07:27;1.30;;;0.50;;
70757;SDS011;59316;52.964;7.102;2022-07-06T10:12:50;0.60;;;0.40;;
70757;SDS011;59316;52.964;7.102;2022-07-06T10:18:11;2.08;;;0.60;;
70757;SDS011;59316;52.964;7.102;2022-07-06T10:23:30;4.13;;;0.50;;
70757;SDS011;59316;52.964;7.102;2022-07-06T10:28:51;2.45;;;0.40;;
70757;SDS011;59316;52.964;7.102;2022-07-06T10:34:12;2.63;;;0.55;;
70757;SDS011;59316;52.964;7.102;2022-07-06T10:39:34;2.58;;;0.60;;
70757;SDS011;59316;52.964;7.102;2022-07-06T10:44:56;1.13;;;0.40;;
70757;SDS011;59316;52.964;7.102;2022-07-06T10:50:15;2.25;;;0.50;;
70757;SDS011;59316;52.964;7.102;2022-07-06T10:55:36;1.27;;;0.50;;
70757;SDS011;59316;52.964;7.102;2022-07-06T11:00:57;2.70;;;0.60;;
70757;SDS011;59316;52.964;7.102;2022-07-06T11:06:19;2.35;;;0.50;;
70757;SDS011;59316;52.964;7.102;2022-07-06T11:11:41;3.05;;;0.50;;
70757;SDS011;59316;52.964;7.102;2022-07-06T11:17:02;1.38;;;0.40;;
70757;SDS011;59316;52.964;7.102;2022-07-06T11:22:22;3.08;;;0.60;;
70757;SDS011;59316;52.964;7.102;2022-07-06T11:27:43;1.77;;;0.50;;
70757;SDS011;59316;52.964;7.102;2022-07-06T11:33:04;1.90;;;0.50;;
70757;SDS011;59316;52.964;7.102;2022-07-06T11:38:27;1.95;;;0.60;;
70757;SDS011;59316;52.964;7.102;2022-07-06T11:43:47;1.13;;;0.40;;
70757;SDS011;59316;52.964;7.102;2022-07-06T11:49:07;1.40;;;0.50;;
70757;SDS011;59316;52.964;7.102;2022-07-06T11:54:27;2.33;;;0.70;;
70757;SDS011;59316;52.964;7.102;2022-07-06T11:59:49;1.83;;;0.50;;
70757;SDS011;59316;52.964;7.102;2022-07-06T12:05:09;2.03;;;0.50;;
70757;SDS011;59316;52.964;7.102;2022-07-06T12:10:32;2.80;;;0.68;;
70757;SDS011;59316;52.964;7.102;2022-07-06T12:15:52;1.80;;;0.52;;
70757;SDS011;59316;52.964;7.102;2022-07-06T12:21:13;2.10;;;0.50;;
70757;SDS011;59316;52.964;7.102;2022-07-06T12:26:39;1.83;;;0.40;;
70757;SDS011;59316;52.964;7.102;2022-07-06T12:31:59;3.00;;;0.60;;
70757;SDS011;59316;52.964;7.102;2022-07-06T12:37:19;1.42;;;0.57;;
70757;SDS011;59316;52.964;7.102;2022-07-06T12:42:47;4.20;;;0.70;;
70757;SDS011;59316;52.964;7.102;2022-07-06T12:48:07;1.67;;;0.50;;
70757;SDS011;59316;52.964;7.102;2022-07-06T12:53:27;1.10;;;0.40;;
70757;SDS011;59316;52.964;7.102;2022-07-06T12:58:56;2.85;;;0.50;;
70757;SDS011;59316;52.964;7.102;2022-07-06T13:04:19;2.40;;;0.60;;
70757;SDS011;59316;52.964;7.102;2022-07-06T13:09:39;3.17;;;0.70;;
70757;SDS011;59316;52.964;7.102;2022-07-06T13:14:59;2.53;;;0.80;;
70757;SDS011;59316;52.964;7.102;2022-07-06T13:20:19;3.63;;;0.70;;
70757;SDS011;59316;52.964;7.102;2022-07-06T13:25:38;1.63;;;0.50;;
70757;SDS011;59316;52.964;7.102;2022-07-06T13:30:58;2.60;;;0.70;;
70757;SDS011;59316;52.964;7.102;2022-07-06T13:36:17;1.70;;;0.70;;
70757;SDS011;59316;52.964;7.102;2022-07-06T13:41:37;2.40;;;0.60;;
70757;SDS011;59316;52.964;7.102;2022-07-06T13:46:57;2.88;;;0.70;;
70757;SDS011;59316;52.964;7.102;2022-07-06T13:52:16;2.60;;;0.50;;
70757;SDS011;59316;52.964;7.102;2022-07-06T13:57:36;1.23;;;0.50;;
70757;SDS011;59316;52.964;7.102;2022-07-06T14:02:56;1.23;;;0.60;;
70757;SDS011;59316;52.964;7.102;2022-07-06T14:08:15;1.98;;;0.75;;
70757;SDS011;59316;52.964;7.102;2022-07-06T14:13:36;5.20;;;0.60;;
70757;SDS011;59316;52.964;7.102;2022-07-06T14:18:56;2.65;;;0.70;;
70757;SDS011;59316;52.964;7.102;2022-07-06T14:24:16;1.58;;;0.40;;
70757;SDS011;59316;52.964;7.102;2022-07-06T14:29:35;1.77;;;0.80;;
70757;SDS011;59316;52.964;7.102;2022-07-06T14:34:55;3.72;;;0.63;;
70757;SDS011;59316;52.964;7.102;2022-07-06T14:40:15;1.80;;;0.80;;
70757;SDS011;59316;52.964;7.102;2022-07-06T14:45:34;1.92;;;0.65;;
70757;SDS011;59316;52.964;7.102;2022-07-06T14:50:54;2.22;;;0.70;;
70757;SDS011;59316;52.964;7.102;2022-07-06T14:56:13;2.72;;;0.90;;
70757;SDS011;59316;52.964;7.102;2022-07-06T15:01:34;4.55;;;0.73;;
70757;SDS011;59316;52.964;7.102;2022-07-06T15:06:53;2.85;;;0.70;;
70757;SDS011;59316;52.964;7.102;2022-07-06T15:12:13;2.35;;;0.82;;
70757;SDS011;59316;52.964;7.102;2022-07-06T15:17:33;2.75;;;0.80;;
70757;SDS011;59316;52.964;7.102;2022-07-06T15:22:52;1.60;;;0.70;;
70757;SDS011;59316;52.964;7.102;2022-07-06T15:28:12;4.53;;;0.70;;
70757;SDS011;59316;52.964;7.102;2022-07-06T15:33:32;2.83;;;0.73;;
70757;SDS011;59316;52.964;7.102;2022-07-06T15:38:52;1.85;;;0.75;;
70757;SDS011;59316;52.964;7.102;2022-07-06T15:44:15;1.27;;;0.73;;
70757;SDS011;59316;52.964;7.102;2022-07-06T15:49:34;3.70;;;1.52;;
70757;SDS011;59316;52.964;7.102;2022-07-06T15:54:54;2.72;;;0.70;;
70757;SDS011;59316;52.964;7.102;2022-07-06T16:00:14;1.73;;;0.80;;
70757;SDS011;59316;52.964;7.102;2022-07-06T16:05:34;2.50;;;0.90;;
70757;SDS011;59316;52.964;7.102;2022-07-06T16:10:54;1.80;;;0.95;;
70757;SDS011;59316;52.964;7.102;2022-07-06T16:16:14;2.17;;;1.20;;
70757;SDS011;59316;52.964;7.102;2022-07-06T16:21:33;2.30;;;1.10;;
70757;SDS011;59316;52.964;7.102;2022-07-06T16:26:53;1.98;;;1.00;;
70757;SDS011;59316;52.964;7.102;2022-07-06T16:32:12;4.78;;;1.17;;
70757;SDS011;59316;52.964;7.102;2022-07-06T16:37:32;4.35;;;1.08;;
70757;SDS011;59316;52.964;7.102;2022-07-06T16:42:52;2.33;;;1.00;;
70757;SDS011;59316;52.964;7.102;2022-07-06T16:48:11;5.13;;;1.33;;
70757;SDS011;59316;52.964;7.102;2022-07-06T16:53:31;3.60;;;1.30;;
70757;SDS011;59316;52.964;7.102;2022-07-06T16:58:51;4.57;;;1.20;;
70757;SDS011;59316;52.964;7.102;2022-07-06T17:04:10;3.60;;;1.52;;
70757;SDS011;59316;52.964;7.102;2022-07-06T17:09:33;4.28;;;1.80;;
70757;SDS011;59316;52.964;7.102;2022-07-06T17:14:52;4.05;;;1.55;;
70757;SDS011;59316;52.964;7.102;2022-07-06T17:20:12;4.68;;;2.38;;
70757;SDS011;59316;52.964;7.102;2022-07-06T17:25:32;4.47;;;2.42;;
70757;SDS011;59316;52.964;7.102;2022-07-06T17:30:51;7.30;;;2.90;;
70757;SDS011;59316;52.964;7.102;2022-07-06T17:36:12;3.67;;;2.75;;
70757;SDS011;59316;52.964;7.102;2022-07-06T17:41:32;10.25;;;2.75;;
70757;SDS011;59316;52.964;7.102;2022-07-06T17:46:52;6.90;;;2.88;;
70757;SDS011;59316;52.964;7.102;2022-07-06T17:52:12;4.20;;;2.55;;
70757;SDS011;59316;52.964;7.102;2022-07-06T17:57:32;4.85;;;3.10;;
70757;SDS011;59316;52.964;7.102;2022-07-06T18:02:52;8.35;;;3.85;;
70757;SDS011;59316;52.964;7.102;2022-07-06T18:08:11;8.60;;;3.55;;
70757;SDS011;59316;52.964;7.102;2022-07-06T18:13:31;8.52;;;3.40;;
70757;SDS011;59316;52.964;7.102;2022-07-06T18:18:51;8.38;;;3.17;;
70757;SDS011;59316;52.964;7.102;2022-07-06T18:24:11;6.45;;;3.28;;
70757;SDS011;59316;52.964;7.102;2022-07-06T18:29:32;6.88;;;3.33;;
70757;SDS011;59316;52.964;7.102;2022-07-06T18:34:52;6.45;;;3.80;;
70757;SDS011;59316;52.964;7.102;2022-07-06T18:40:12;8.70;;;3.95;;
70757;SDS011;59316;52.964;7.102;2022-07-06T18:45:32;7.40;;;4.07;;
70757;SDS011;59316;52.964;7.102;2022-07-06T18:50:52;8.43;;;4.32;;
70757;SDS011;59316;52.964;7.102;2022-07-06T18:56:11;7.55;;;4.32;;
70757;SDS011;59316;52.964;7.102;2022-07-06T19:01:31;8.70;;;4.75;;
70757;SDS011;59316;52.964;7.102;2022-07-06T19:06:50;7.82;;;4.35;;
70757;SDS011;59316;52.964;7.102;2022-07-06T19:12:10;9.23;;;5.13;;
70757;SDS011;59316;52.964;7.102;2022-07-06T19:17:30;9.70;;;5.70;;
70757;SDS011;59316;52.964;7.102;2022-07-06T19:22:50;9.70;;;5.82;;
70757;SDS011;59316;52.964;7.102;2022-07-06T19:28:10;12.20;;;6.90;;
70757;SDS011;59316;52.964;7.102;2022-07-06T19:33:29;13.70;;;6.63;;
70757;SDS011;59316;52.964;7.102;2022-07-06T19:38:48;14.43;;;7.43;;
70757;SDS011;59316;52.964;7.102;2022-07-06T19:44:08;16.65;;;9.68;;
70757;SDS011;59316;52.964;7.102;2022-07-06T19:49:27;14.10;;;7.55;;
70757;SDS011;59316;52.964;7.102;2022-07-06T19:54:47;15.98;;;8.68;;
70757;SDS011;59316;52.964;7.102;2022-07-06T20:00:06;15.98;;;8.57;;
70757;SDS011;59316;52.964;7.102;2022-07-06T20:05:29;18.37;;;10.03;;
70757;SDS011;59316;52.964;7.102;2022-07-06T20:10:49;14.90;;;9.45;;
70757;SDS011;59316;52.964;7.102;2022-07-06T20:16:09;20.52;;;10.95;;
70757;SDS011;59316;52.964;7.102;2022-07-06T20:21:28;16.02;;;10.43;;
70757;SDS011;59316;52.964;7.102;2022-07-06T20:26:48;18.23;;;11.07;;
70757;SDS011;59316;52.964;7.102;2022-07-06T20:32:08;19.50;;;10.52;;
70757;SDS011;59316;52.964;7.102;2022-07-06T20:37:27;20.95;;;11.50;;
70757;SDS011;59316;52.964;7.102;2022-07-06T20:42:47;21.20;;;12.10;;
70757;SDS011;59316;52.964;7.102;2022-07-06T20:48:07;21.90;;;12.20;;
70757;SDS011;59316;52.964;7.102;2022-07-06T20:53:26;30.50;;;13.80;;
70757;SDS011;59316;52.964;7.102;2022-07-06T20:58:46;27.00;;;13.40;;
70757;SDS011;59316;52.964;7.102;2022-07-06T21:04:06;28.25;;;12.98;;
70757;SDS011;59316;52.964;7.102;2022-07-06T21:09:27;24.88;;;13.35;;
70757;SDS011;59316;52.964;7.102;2022-07-06T21:14:46;26.63;;;13.05;;
70757;SDS011;59316;52.964;7.102;2022-07-06T21:20:06;29.27;;;13.88;;
70757;SDS011;59316;52.964;7.102;2022-07-06T21:25:26;29.15;;;14.27;;
70757;SDS011;59316;52.964;7.102;2022-07-06T21:30:46;30.50;;;15.10;;
70757;SDS011;59316;52.964;7.102;2022-07-06T21:36:05;32.33;;;14.90;;
70757;SDS011;59316;52.964;7.102;2022-07-06T21:41:25;30.70;;;14.80;;
70757;SDS011;59316;52.964;7.102;2022-07-06T21:46:44;35.47;;;15.43;;
70757;SDS011;59316;52.964;7.102;2022-07-06T21:52:04;30.77;;;15.95;;
70757;SDS011;59316;52.964;7.102;2022-07-06T21:57:24;28.45;;;15.80;;
70757;SDS011;59316;52.964;7.102;2022-07-06T22:02:44;38.30;;;15.75;;
70757;SDS011;59316;52.964;7.102;2022-07-06T22:08:07;26.55;;;15.05;;
70757;SDS011;59316;52.964;7.102;2022-07-06T22:13:27;35.60;;;15.93;;
70757;SDS011;59316;52.964;7.102;2022-07-06T22:18:48;33.10;;;15.57;;
70757;SDS011;59316;52.964;7.102;2022-07-06T22:24:09;34.03;;;15.75;;
70757;SDS011;59316;52.964;7.102;2022-07-06T22:29:29;30.50;;;16.05;;
70757;SDS011;59316;52.964;7.102;2022-07-06T22:34:49;33.70;;;15.20;;
70757;SDS011;59316;52.964;7.102;2022-07-06T22:40:08;35.03;;;16.00;;
70757;SDS011;59316;52.964;7.102;2022-07-06T22:45:29;33.08;;;15.15;;
70757;SDS011;59316;52.964;7.102;2022-07-06T22:50:49;36.55;;;15.57;;
70757;SDS011;59316;52.964;7.102;2022-07-06T22:56:09;32.30;;;15.80;;
70757;SDS011;59316;52.964;7.102;2022-07-06T23:01:29;32.03;;;15.13;;
70757;SDS011;59316;52.964;7.102;2022-07-06T23:06:49;31.80;;;15.80;;
70757;SDS011;59316;52.964;7.102;2022-07-06T23:12:09;26.52;;;14.55;;
70757;SDS011;59316;52.964;7.102;2022-07-06T23:17:29;27.60;;;13.63;;
70757;SDS011;59316;52.964;7.102;2022-07-06T23:22:49;30.92;;;14.52;;
70757;SDS011;59316;52.964;7.102;2022-07-06T23:28:09;37.88;;;15.85;;
70757;SDS011;59316;52.964;7.102;2022-07-06T23:33:29;31.13;;;14.40;;
70757;SDS011;59316;52.964;7.102;2022-07-06T23:38:49;32.92;;;14.02;;
70757;SDS011;59316;52.964;7.102;2022-07-06T23:44:09;28.58;;;14.40;;
70757;SDS011;59316;52.964;7.102;2022-07-06T23:49:28;29.17;;;13.90;;
70757;SDS011;59316;52.964;7.102;2022-07-06T23:54:48;22.83;;;12.77;;
